Time;durP1;ratioP1;P1;durP2;ratioP2;P2;SDS_P1;SDS_P2;PMS_P1;PMS_P2;Temp;Humidity;BMP_temperature;BMP_pressure;BME280_temperature;BME280_humidity;BME280_pressure;Samples;Min_cycle;Max_cycle;Signal;HPM_P1;HPM_P2
2024/01/19 00:01:01;;;;;;;6.10;5.50;;;1.00;63.70;;;;;;5034083;28;20704;-60
2024/01/19 00:03:28;;;;;;;8.00;6.17;;;1.10;64.90;;;;;;5034854;28;20209;-60
2024/01/19 00:05:54;;;;;;;5.87;5.37;;;1.00;66.00;;;;;;5038274;28;20268;-61
2024/01/19 00:08:21;;;;;;;6.00;5.50;;;1.10;64.70;;;;;;5041994;28;20209;-61
2024/01/19 00:10:47;;;;;;;6.63;6.00;;;1.10;64.50;;;;;;5041072;28;20628;-61
2024/01/19 00:13:14;;;;;;;5.77;5.20;;;1.10;65.70;;;;;;5042766;28;20271;-61
2024/01/19 00:15:40;;;;;;;5.83;5.30;;;1.10;65.20;;;;;;5044407;28;20712;-61
2024/01/19 00:18:07;;;;;;;6.67;5.70;;;1.00;65.30;;;;;;5041254;28;20295;-61
2024/01/19 00:20:33;;;;;;;6.70;5.80;;;1.10;65.10;;;;;;5037472;28;20205;-61
2024/01/19 00:23:00;;;;;;;5.83;5.33;;;1.10;65.40;;;;;;5035633;28;20651;-61
2024/01/19 00:25:26;;;;;;;7.43;6.50;;;1.10;64.70;;;;;;5045520;28;20261;-61
2024/01/19 00:27:53;;;;;;;7.20;6.50;;;1.10;65.50;;;;;;5040205;28;20286;-60
2024/01/19 00:30:19;;;;;;;5.97;5.47;;;1.20;65.40;;;;;;5039549;28;20224;-61
2024/01/19 00:32:46;;;;;;;6.73;6.13;;;1.20;66.20;;;;;;5042861;28;20270;-61
2024/01/19 00:35:12;;;;;;;6.80;6.10;;;1.10;66.20;;;;;;5040225;28;20279;-61
2024/01/19 00:37:39;;;;;;;7.10;6.40;;;1.00;66.10;;;;;;5034739;28;20287;-61
2024/01/19 00:40:11;;;;;;;6.13;5.63;;;1.10;65.80;;;;;;5040458;28;20233;-61
2024/01/19 00:42:37;;;;;;;7.00;5.83;;;1.00;66.10;;;;;;5040427;28;20587;-60
2024/01/19 00:45:04;;;;;;;6.33;5.73;;;1.10;66.20;;;;;;5042132;28;20256;-61
2024/01/19 00:47:31;;;;;;;7.63;6.37;;;0.90;66.00;;;;;;5043417;28;20240;-61
2024/01/19 00:49:57;;;;;;;7.10;6.00;;;0.80;66.50;;;;;;5041128;28;20205;-61
2024/01/19 00:52:24;;;;;;;7.37;6.67;;;1.00;67.50;;;;;;5042439;28;20246;-61
2024/01/19 00:54:50;;;;;;;7.43;6.57;;;0.90;66.00;;;;;;5043695;28;20205;-61
2024/01/19 00:57:17;;;;;;;7.67;6.40;;;0.90;67.30;;;;;;5043500;28;20695;-61
2024/01/19 00:59:43;;;;;;;6.93;6.23;;;1.00;66.80;;;;;;5042658;28;20236;-61
2024/01/19 01:02:10;;;;;;;6.87;6.23;;;0.70;68.20;;;;;;5039782;28;20753;-61
2024/01/19 01:04:36;;;;;;;7.23;5.83;;;0.80;65.70;;;;;;5039803;28;20213;-60
2024/01/19 01:07:03;;;;;;;6.33;5.77;;;0.90;65.40;;;;;;5042115;28;20245;-61
2024/01/19 01:09:30;;;;;;;7.10;6.33;;;0.80;64.90;;;;;;5038362;28;20688;-61
2024/01/19 01:11:56;;;;;;;6.03;5.43;;;0.70;64.00;;;;;;5044163;28;20599;-61
2024/01/19 01:14:23;;;;;;;6.47;5.87;;;0.60;63.50;;;;;;5044137;28;20239;-61
2024/01/19 01:16:49;;;;;;;6.13;5.50;;;0.70;65.90;;;;;;5034627;28;20257;-61
2024/01/19 01:19:16;;;;;;;6.33;5.73;;;0.70;64.60;;;;;;5043354;28;20208;-61
2024/01/19 01:21:42;;;;;;;5.70;5.20;;;0.80;64.40;;;;;;5037626;28;20263;-61
2024/01/19 01:24:08;;;;;;;6.63;5.90;;;0.90;64.60;;;;;;5051018;28;20253;-61
2024/01/19 01:26:35;;;;;;;6.33;5.73;;;0.90;64.10;;;;;;5043127;28;20259;-61
2024/01/19 01:29:02;;;;;;;6.83;5.50;;;1.00;64.60;;;;;;5035944;28;20202;-60
2024/01/19 01:31:28;;;;;;;6.50;6.00;;;0.90;64.80;;;;;;5042488;28;20287;-61
2024/01/19 01:33:55;;;;;;;6.30;5.67;;;0.80;64.50;;;;;;5041249;28;20565;-61
2024/01/19 01:36:21;;;;;;;7.07;6.10;;;0.90;64.00;;;;;;5046068;28;20260;-60
2024/01/19 01:38:48;;;;;;;7.37;6.30;;;0.90;64.50;;;;;;5047183;28;20233;-61
2024/01/19 01:41:14;;;;;;;7.37;5.60;;;0.90;63.40;;;;;;5045347;28;20245;-61
2024/01/19 01:43:40;;;;;;;5.97;5.23;;;0.90;64.10;;;;;;5041804;28;20232;-61
2024/01/19 01:46:07;;;;;;;6.53;5.93;;;1.00;64.20;;;;;;5052777;28;20260;-61
2024/01/19 01:48:33;;;;;;;6.40;5.77;;;1.00;63.90;;;;;;5049966;28;20694;-61
2024/01/19 01:51:00;;;;;;;6.73;5.37;;;0.90;64.50;;;;;;5052985;28;20255;-61
2024/01/19 01:53:27;;;;;;;6.10;5.37;;;0.80;63.90;;;;;;5045274;28;20807;-61
2024/01/19 01:55:54;;;;;;;6.83;5.40;;;0.80;63.80;;;;;;5041321;28;20229;-59
2024/01/19 01:58:20;;;;;;;5.90;5.30;;;0.80;64.20;;;;;;5055334;28;20345;-61
2024/01/19 02:00:47;;;;;;;5.87;4.90;;;0.90;63.70;;;;;;5055134;28;20244;-61
2024/01/19 02:03:13;;;;;;;6.47;4.67;;;0.80;63.00;;;;;;5042648;28;20248;-61
2024/01/19 02:05:40;;;;;;;7.00;4.87;;;0.90;63.40;;;;;;5049092;28;20279;-61
2024/01/19 02:08:06;;;;;;;7.27;4.93;;;0.90;62.40;;;;;;5046531;28;20225;-61
2024/01/19 02:10:33;;;;;;;5.27;4.83;;;0.90;62.60;;;;;;5043503;28;20640;-62
2024/01/19 02:13:00;;;;;;;5.17;4.77;;;0.80;61.80;;;;;;5043332;28;20236;-60
2024/01/19 02:15:27;;;;;;;5.20;4.23;;;0.80;61.90;;;;;;5047942;28;20236;-61
2024/01/19 02:17:53;;;;;;;7.00;4.60;;;0.90;61.90;;;;;;5044832;28;20201;-61
2024/01/19 02:20:20;;;;;;;5.13;4.67;;;0.80;62.00;;;;;;5046598;28;20244;-61
2024/01/19 02:22:46;;;;;;;6.27;4.80;;;0.90;62.60;;;;;;5046009;28;20282;-61
2024/01/19 02:25:13;;;;;;;5.03;4.53;;;0.90;62.00;;;;;;5045337;28;20256;-62
2024/01/19 02:27:39;;;;;;;5.90;4.63;;;0.80;61.40;;;;;;5048968;28;20252;-61
2024/01/19 02:30:06;;;;;;;5.07;4.57;;;0.70;61.70;;;;;;5037612;28;20229;-61
2024/01/19 02:32:32;;;;;;;4.70;4.30;;;0.70;61.60;;;;;;5049081;28;20213;-61
2024/01/19 02:34:59;;;;;;;5.47;4.93;;;0.70;62.20;;;;;;5049033;28;20262;-61
2024/01/19 02:37:25;;;;;;;5.17;4.67;;;0.80;61.70;;;;;;5042906;28;20291;-61
2024/01/19 02:39:52;;;;;;;4.97;4.57;;;0.80;61.30;;;;;;5043838;28;20276;-61
2024/01/19 02:42:18;;;;;;;4.60;4.20;;;0.80;61.60;;;;;;5047093;28;20198;-60
2024/01/19 02:44:45;;;;;;;4.97;4.10;;;0.90;59.90;;;;;;5041841;28;20714;-60
2024/01/19 02:47:12;;;;;;;4.87;4.37;;;0.80;60.20;;;;;;5036893;28;20228;-60
2024/01/19 02:49:39;;;;;;;5.50;4.90;;;0.90;59.90;;;;;;5051971;28;20221;-61
2024/01/19 02:52:05;;;;;;;5.13;4.40;;;0.70;60.70;;;;;;5050911;28;20248;-61
2024/01/19 02:54:31;;;;;;;6.17;5.37;;;0.70;61.10;;;;;;5041856;28;20205;-61
2024/01/19 02:56:58;;;;;;;6.50;5.77;;;0.80;59.80;;;;;;5048681;28;20777;-61
2024/01/19 02:59:24;;;;;;;5.13;4.63;;;0.80;59.80;;;;;;5048378;28;20202;-61
2024/01/19 03:01:51;;;;;;;5.60;5.10;;;0.70;60.40;;;;;;5045834;28;20232;-61
2024/01/19 03:04:17;;;;;;;5.63;5.13;;;0.70;60.10;;;;;;5042361;28;20236;-61
2024/01/19 03:06:44;;;;;;;5.70;5.10;;;0.70;61.40;;;;;;5043870;28;20692;-60
2024/01/19 03:09:10;;;;;;;5.10;4.60;;;0.80;60.40;;;;;;5052564;28;20201;-61
2024/01/19 03:11:37;;;;;;;6.93;5.23;;;0.60;60.70;;;;;;5048194;28;20612;-61
2024/01/19 03:14:04;;;;;;;6.87;5.00;;;0.60;61.70;;;;;;5045322;28;20654;-61
2024/01/19 03:16:30;;;;;;;6.30;5.70;;;0.60;61.90;;;;;;5051324;28;20266;-61
2024/01/19 03:19:00;;;;;;;6.77;5.30;;;0.70;60.80;;;;;;5033914;28;20233;-61
2024/01/19 03:21:26;;;;;;;6.43;5.57;;;0.60;61.50;;;;;;5044944;28;20745;-60
2024/01/19 03:23:53;;;;;;;5.23;4.73;;;0.60;61.90;;;;;;5051783;28;20266;-60
2024/01/19 03:26:19;;;;;;;7.37;5.87;;;0.60;62.00;;;;;;5041374;28;20261;-61
2024/01/19 03:28:46;;;;;;;6.77;5.60;;;0.60;61.70;;;;;;5045226;28;20236;-59
2024/01/19 03:31:12;;;;;;;8.70;5.63;;;0.60;61.10;;;;;;5043881;28;20212;-61
2024/01/19 03:33:39;;;;;;;6.40;5.70;;;0.60;62.30;;;;;;5038131;28;20251;-60
2024/01/19 03:36:05;;;;;;;6.70;5.50;;;0.50;61.40;;;;;;5041188;28;20229;-61
2024/01/19 03:38:32;;;;;;;8.10;6.07;;;0.50;61.90;;;;;;5043304;28;20749;-61
2024/01/19 03:41:00;;;;;;;6.83;5.53;;;0.50;61.60;;;;;;5050837;28;20240;-62
2024/01/19 03:43:26;;;;;;;6.70;5.90;;;0.50;61.60;;;;;;5041510;28;20217;-61
2024/01/19 03:45:53;;;;;;;6.23;5.63;;;0.50;61.30;;;;;;5046182;28;20229;-61
2024/01/19 03:48:19;;;;;;;7.83;6.27;;;0.50;61.20;;;;;;5041739;28;20230;-61
2024/01/19 03:50:46;;;;;;;7.10;5.50;;;0.60;61.40;;;;;;5041694;28;20322;-61
2024/01/19 03:53:12;;;;;;;9.73;6.07;;;0.60;60.40;;;;;;5044882;28;20221;-61
2024/01/19 03:55:39;;;;;;;5.67;5.17;;;0.70;60.30;;;;;;5040802;28;20320;-61
2024/01/19 03:58:05;;;;;;;6.87;6.10;;;0.50;61.30;;;;;;5048536;28;20205;-61
2024/01/19 04:00:32;;;;;;;6.90;6.00;;;0.50;60.40;;;;;;5042906;28;20217;-61
2024/01/19 04:02:58;;;;;;;6.33;5.77;;;0.30;60.70;;;;;;5042201;28;20458;-61
2024/01/19 04:05:25;;;;;;;7.03;6.43;;;0.40;61.80;;;;;;5040664;28;20233;-61
2024/01/19 04:07:52;;;;;;;8.53;6.53;;;0.50;61.70;;;;;;5041702;28;20280;-61
2024/01/19 04:10:18;;;;;;;6.50;6.00;;;0.50;60.50;;;;;;5047544;28;20224;-61
2024/01/19 04:12:45;;;;;;;7.37;5.83;;;0.40;61.30;;;;;;5040936;28;20798;-61
2024/01/19 04:15:11;;;;;;;7.60;6.43;;;0.30;61.70;;;;;;5044118;28;20303;-61
2024/01/19 04:17:38;;;;;;;7.07;6.27;;;0.40;60.40;;;;;;5041872;28;20287;-61
2024/01/19 04:20:05;;;;;;;9.07;6.70;;;0.40;61.80;;;;;;5043174;28;20300;-61
2024/01/19 04:22:31;;;;;;;6.90;6.00;;;0.40;61.90;;;;;;5044184;28;20311;-60
2024/01/19 04:24:58;;;;;;;8.10;6.47;;;0.50;60.60;;;;;;5039473;28;20204;-60
2024/01/19 04:27:24;;;;;;;7.97;6.83;;;0.40;60.70;;;;;;5044017;28;20266;-61
2024/01/19 04:29:51;;;;;;;10.47;7.37;;;0.30;61.50;;;;;;5042991;28;20213;-59
2024/01/19 04:32:17;;;;;;;7.27;6.13;;;0.30;61.70;;;;;;5035992;28;20208;-61
2024/01/19 04:34:44;;;;;;;7.00;6.27;;;0.20;60.80;;;;;;5045143;28;20240;-61
2024/01/19 04:37:10;;;;;;;9.43;6.00;;;0.10;61.40;;;;;;5043674;28;20203;-61
2024/01/19 04:39:36;;;;;;;7.93;6.90;;;0.20;61.40;;;;;;5043470;28;20293;-61
2024/01/19 04:42:03;;;;;;;11.03;7.00;;;0.10;61.50;;;;;;5040413;28;20889;-61
2024/01/19 04:44:30;;;;;;;8.17;6.87;;;0.10;62.10;;;;;;5041101;28;20261;-62
2024/01/19 04:46:56;;;;;;;7.97;6.70;;;0.00;61.70;;;;;;5042640;28;20235;-61
2024/01/19 04:49:23;;;;;;;9.00;7.57;;;0.10;61.50;;;;;;5047928;28;20204;-61
2024/01/19 04:51:49;;;;;;;9.87;7.47;;;0.10;61.80;;;;;;5041803;28;20251;-61
2024/01/19 04:54:16;;;;;;;8.73;6.67;;;0.10;61.90;;;;;;5039287;28;20742;-61
2024/01/19 04:56:42;;;;;;;8.57;6.83;;;0.10;61.80;;;;;;5039591;28;20281;-61
2024/01/19 04:59:09;;;;;;;8.53;7.67;;;0.00;61.90;;;;;;5039175;28;20203;-61
2024/01/19 05:01:35;;;;;;;8.60;7.53;;;0.00;62.30;;;;;;5039362;28;20208;-60
2024/01/19 05:04:02;;;;;;;8.33;6.73;;;0.00;62.00;;;;;;5033539;28;20208;-61
2024/01/19 05:06:28;;;;;;;8.73;7.83;;;-0.10;61.90;;;;;;5051108;28;20286;-61
2024/01/19 05:08:55;;;;;;;8.07;7.27;;;-0.10;62.30;;;;;;5048204;28;20224;-61
2024/01/19 05:11:21;;;;;;;7.90;7.10;;;-0.10;62.80;;;;;;5041922;28;20208;-61
2024/01/19 05:13:48;;;;;;;9.93;7.03;;;0.00;62.60;;;;;;5042059;28;20695;-59
2024/01/19 05:16:14;;;;;;;9.90;7.63;;;0.10;61.60;;;;;;5039068;28;20232;-61
2024/01/19 05:18:41;;;;;;;9.33;6.90;;;0.00;62.00;;;;;;5039428;28;20212;-61
2024/01/19 05:21:07;;;;;;;8.60;7.60;;;0.00;62.40;;;;;;5042697;28;20295;-61
2024/01/19 05:23:34;;;;;;;9.13;7.73;;;0.10;63.00;;;;;;5043590;28;20704;-60
2024/01/19 05:26:00;;;;;;;10.00;7.93;;;0.10;63.00;;;;;;5038667;28;20268;-61
2024/01/19 05:28:27;;;;;;;10.77;7.87;;;0.00;62.80;;;;;;5041381;28;20262;-61
2024/01/19 05:30:54;;;;;;;11.43;8.60;;;0.00;63.70;;;;;;5033873;28;20200;-61
2024/01/19 05:33:20;;;;;;;10.47;8.40;;;0.10;63.20;;;;;;5033252;28;20481;-61
2024/01/19 05:35:46;;;;;;;9.03;7.77;;;0.00;62.90;;;;;;5040500;28;20256;-59
2024/01/19 05:38:13;;;;;;;10.63;7.87;;;0.10;62.50;;;;;;5038984;28;20240;-61
2024/01/19 05:40:39;;;;;;;10.20;8.80;;;0.10;62.90;;;;;;5041185;28;20277;-61
2024/01/19 05:43:06;;;;;;;10.37;8.43;;;0.10;62.80;;;;;;5039211;28;20212;-61
2024/01/19 05:45:32;;;;;;;10.37;8.43;;;0.20;61.30;;;;;;5034061;28;20694;-61
2024/01/19 05:47:59;;;;;;;13.37;8.43;;;0.10;61.50;;;;;;5040971;28;20224;-61
2024/01/19 05:50:25;;;;;;;11.03;8.93;;;0.10;62.30;;;;;;5030655;28;20678;-61
2024/01/19 05:52:52;;;;;;;12.30;9.10;;;0.10;62.70;;;;;;5039986;28;20220;-61
2024/01/19 05:55:18;;;;;;;10.60;8.10;;;0.00;62.00;;;;;;5051161;28;20234;-59
2024/01/19 05:57:45;;;;;;;10.23;8.17;;;0.00;62.10;;;;;;5040265;28;20654;-61
2024/01/19 06:00:11;;;;;;;8.90;7.33;;;0.10;61.80;;;;;;5043022;28;20243;-62
2024/01/19 06:02:38;;;;;;;13.07;8.63;;;0.00;61.70;;;;;;5043244;28;20243;-61
2024/01/19 06:05:04;;;;;;;12.20;8.47;;;-0.10;62.00;;;;;;5041120;28;20239;-61
2024/01/19 06:07:32;;;;;;;11.60;8.67;;;0.00;62.00;;;;;;5038052;28;20264;-60
2024/01/19 06:09:58;;;;;;;11.80;8.60;;;-0.10;62.00;;;;;;5044810;28;20207;-60
2024/01/19 06:12:26;;;;;;;17.77;8.97;;;0.00;61.40;;;;;;5036413;28;20207;-61
2024/01/19 06:14:52;;;;;;;12.50;8.63;;;0.10;61.10;;;;;;5030431;28;20216;-59
2024/01/19 06:17:19;;;;;;;10.83;8.53;;;0.20;61.30;;;;;;5042953;28;20214;-61
2024/01/19 06:19:46;;;;;;;13.53;9.13;;;0.00;61.60;;;;;;5037571;28;20206;-61
2024/01/19 06:22:13;;;;;;;12.77;9.53;;;0.00;61.20;;;;;;5042867;28;20234;-60
2024/01/19 06:24:39;;;;;;;9.90;8.27;;;0.00;61.50;;;;;;5039771;28;20243;-61
2024/01/19 06:27:06;;;;;;;11.27;9.17;;;0.00;62.30;;;;;;5044471;28;20275;-61
2024/01/19 06:29:32;;;;;;;11.03;8.10;;;0.10;61.00;;;;;;5040782;28;20247;-61
2024/01/19 06:31:59;;;;;;;10.30;8.80;;;0.10;60.50;;;;;;5048721;28;20977;-61
2024/01/19 06:34:25;;;;;;;12.40;9.13;;;0.10;60.20;;;;;;5048577;28;20208;-60
2024/01/19 06:36:52;;;;;;;12.87;8.93;;;0.10;60.60;;;;;;5045739;28;20298;-61
2024/01/19 06:39:18;;;;;;;10.33;9.17;;;0.20;60.50;;;;;;5045688;28;20205;-61
2024/01/19 06:41:45;;;;;;;10.63;8.43;;;0.20;60.00;;;;;;5050168;28;20208;-61
2024/01/19 06:44:11;;;;;;;9.67;8.37;;;0.00;60.70;;;;;;5052829;28;20656;-61
2024/01/19 06:46:38;;;;;;;10.90;8.73;;;0.00;60.30;;;;;;5044936;28;20324;-59
2024/01/19 06:49:04;;;;;;;10.73;9.53;;;0.00;59.90;;;;;;5045747;28;20231;-60
2024/01/19 06:51:32;;;;;;;10.13;9.03;;;0.00;60.40;;;;;;5046285;28;20256;-60
2024/01/19 06:53:59;;;;;;;11.87;8.97;;;-0.10;61.80;;;;;;5048390;28;20222;-61
2024/01/19 06:56:25;;;;;;;10.53;8.70;;;0.10;61.00;;;;;;5048748;28;20232;-61
2024/01/19 06:58:52;;;;;;;12.57;8.40;;;0.10;59.40;;;;;;5043508;28;20258;-61
2024/01/19 07:01:19;;;;;;;9.63;8.23;;;0.00;60.80;;;;;;5046455;28;20642;-61
2024/01/19 07:03:45;;;;;;;11.97;8.37;;;0.00;60.80;;;;;;5048300;28;20221;-60
2024/01/19 07:06:12;;;;;;;9.57;8.40;;;0.00;60.00;;;;;;5050214;28;20262;-61
2024/01/19 07:08:38;;;;;;;13.80;9.00;;;0.00;60.10;;;;;;5049691;28;20249;-61
2024/01/19 07:11:05;;;;;;;10.87;8.70;;;0.10;60.00;;;;;;5044987;28;20583;-59
2024/01/19 07:13:31;;;;;;;10.90;8.57;;;0.00;59.60;;;;;;5044426;28;20602;-61
2024/01/19 07:15:58;;;;;;;11.47;8.37;;;0.10;60.00;;;;;;5039450;28;20234;-61
2024/01/19 07:18:24;;;;;;;11.77;8.33;;;0.20;59.40;;;;;;5047278;28;20200;-59
2024/01/19 07:20:51;;;;;;;11.40;7.67;;;0.10;59.30;;;;;;5046942;28;20243;-60
2024/01/19 07:23:17;;;;;;;11.07;7.93;;;0.00;59.20;;;;;;5045798;28;20731;-60
2024/01/19 07:25:44;;;;;;;9.17;8.20;;;0.20;59.40;;;;;;5051643;28;20262;-61
2024/01/19 07:28:10;;;;;;;11.27;8.03;;;0.00;59.20;;;;;;5050510;28;20638;-61
2024/01/19 07:30:37;;;;;;;9.87;7.90;;;0.00;59.40;;;;;;5046354;28;20257;-61
2024/01/19 07:33:03;;;;;;;9.00;8.10;;;0.00;60.20;;;;;;5030348;28;20298;-59
2024/01/19 07:35:30;;;;;;;11.77;7.77;;;0.00;60.20;;;;;;5032697;28;20266;-61
2024/01/19 07:37:56;;;;;;;11.20;8.10;;;0.00;60.00;;;;;;5058105;28;20232;-60
2024/01/19 07:40:23;;;;;;;8.97;7.60;;;0.00;60.00;;;;;;5053329;28;20236;-60
2024/01/19 07:42:49;;;;;;;9.97;7.70;;;0.10;60.10;;;;;;5042193;28;20217;-61
2024/01/19 07:45:16;;;;;;;10.10;7.37;;;0.20;59.40;;;;;;5054079;28;20263;-62
2024/01/19 07:47:42;;;;;;;7.90;7.10;;;0.10;59.30;;;;;;5052765;28;20239;-61
2024/01/19 07:50:10;;;;;;;12.47;8.30;;;0.10;59.30;;;;;;5050892;28;20648;-61
2024/01/19 07:52:37;;;;;;;8.27;7.33;;;0.10;59.30;;;;;;5048018;28;21152;-60
2024/01/19 07:55:03;;;;;;;11.47;7.73;;;0.20;58.50;;;;;;5052860;28;20231;-61
2024/01/19 07:57:30;;;;;;;9.13;7.50;;;0.30;59.00;;;;;;5052029;28;20216;-61
2024/01/19 07:59:56;;;;;;;8.13;6.67;;;0.40;57.90;;;;;;5052686;28;20217;-62
2024/01/19 08:02:23;;;;;;;7.80;6.97;;;0.40;57.90;;;;;;5046358;28;20205;-61
2024/01/19 08:04:49;;;;;;;7.90;7.00;;;0.40;58.10;;;;;;5060481;28;20203;-60
2024/01/19 08:07:16;;;;;;;7.90;7.07;;;0.40;58.40;;;;;;5056355;28;20212;-61
2024/01/19 08:09:42;;;;;;;9.53;7.33;;;0.50;58.30;;;;;;5046337;28;20259;-61
2024/01/19 08:12:09;;;;;;;11.53;7.33;;;0.40;58.00;;;;;;5056082;28;20206;-61
2024/01/19 08:14:35;;;;;;;10.33;6.73;;;0.50;58.00;;;;;;5046624;28;20247;-61
2024/01/19 08:17:02;;;;;;;9.77;7.33;;;0.50;57.20;;;;;;5044885;28;20305;-61
2024/01/19 08:19:29;;;;;;;8.50;6.80;;;0.50;57.80;;;;;;5039403;28;20758;-61
2024/01/19 08:21:56;;;;;;;8.90;6.57;;;0.30;56.10;;;;;;5058665;28;20252;-61
2024/01/19 08:24:22;;;;;;;7.17;6.47;;;0.30;56.50;;;;;;5047907;28;20211;-60
2024/01/19 08:26:49;;;;;;;10.30;7.53;;;0.30;56.20;;;;;;5054965;28;20616;-60
2024/01/19 08:29:16;;;;;;;9.23;6.97;;;0.40;58.10;;;;;;5045221;28;20250;-62
2024/01/19 08:31:43;;;;;;;10.23;7.97;;;0.30;56.50;;;;;;5042890;28;20651;-61
2024/01/19 08:34:09;;;;;;;7.67;6.60;;;0.20;57.50;;;;;;5034604;28;20212;-61
2024/01/19 08:36:36;;;;;;;9.73;6.50;;;0.40;56.70;;;;;;5051304;28;20637;-61
2024/01/19 08:39:03;;;;;;;8.47;6.57;;;0.40;56.80;;;;;;5062060;28;20683;-61
2024/01/19 08:41:29;;;;;;;7.73;7.03;;;0.40;56.50;;;;;;5052239;28;20219;-61
2024/01/19 08:43:56;;;;;;;8.70;7.47;;;0.40;57.50;;;;;;5058202;28;20240;-62
2024/01/19 08:46:22;;;;;;;10.10;7.33;;;0.40;57.70;;;;;;5055554;28;20282;-62
2024/01/19 08:48:49;;;;;;;11.23;7.70;;;0.40;57.10;;;;;;5051055;28;20228;-60
2024/01/19 08:51:15;;;;;;;10.90;8.43;;;0.40;57.90;;;;;;5046548;28;20558;-61
2024/01/19 08:53:42;;;;;;;9.17;7.87;;;0.40;57.60;;;;;;5048051;28;20268;-61
2024/01/19 08:56:08;;;;;;;11.80;8.43;;;0.40;57.30;;;;;;5059627;28;20708;-61
2024/01/19 08:58:36;;;;;;;10.40;8.60;;;0.40;58.20;;;;;;5033122;28;20663;-61
2024/01/19 09:01:03;;;;;;;11.67;9.57;;;0.50;57.60;;;;;;5026606;28;20200;-59
2024/01/19 09:03:30;;;;;;;9.10;8.20;;;0.40;57.80;;;;;;5048917;28;20747;-57
2024/01/19 09:05:56;;;;;;;9.50;8.60;;;0.40;57.40;;;;;;5057352;28;20247;-59
2024/01/19 09:08:23;;;;;;;12.10;8.40;;;0.60;57.50;;;;;;5044446;28;20236;-58
2024/01/19 09:10:49;;;;;;;10.37;8.60;;;0.70;57.10;;;;;;5031363;28;20286;-59
2024/01/19 09:13:16;;;;;;;11.13;8.17;;;0.60;57.00;;;;;;5054812;28;20702;-59
2024/01/19 09:15:42;;;;;;;9.97;8.33;;;0.60;56.30;;;;;;5051283;28;20267;-59
2024/01/19 09:18:09;;;;;;;11.57;8.13;;;0.40;56.60;;;;;;5038483;28;20721;-59
2024/01/19 09:20:35;;;;;;;9.43;7.83;;;0.60;56.80;;;;;;5056506;28;20630;-57
2024/01/19 09:23:02;;;;;;;10.30;8.93;;;0.60;56.80;;;;;;5046411;28;20233;-59
2024/01/19 09:25:28;;;;;;;11.97;8.77;;;0.70;57.10;;;;;;5042927;28;20240;-58
2024/01/19 09:27:56;;;;;;;13.13;8.83;;;0.80;56.50;;;;;;5045036;28;20202;-55
2024/01/19 09:30:22;;;;;;;11.70;8.37;;;0.80;56.70;;;;;;5042611;28;20572;-58
2024/01/19 09:32:49;;;;;;;10.93;8.10;;;0.90;55.80;;;;;;5051105;28;20232;-60
2024/01/19 09:35:15;;;;;;;9.40;8.33;;;1.10;55.80;;;;;;5047642;28;20407;-58
2024/01/19 09:37:42;;;;;;;10.23;9.17;;;1.00;56.30;;;;;;5055747;28;20277;-60
2024/01/19 09:40:08;;;;;;;12.00;9.47;;;0.90;55.70;;;;;;5046385;28;20295;-60
2024/01/19 09:42:35;;;;;;;9.33;8.23;;;0.90;55.60;;;;;;5055005;28;20734;-60
2024/01/19 09:45:02;;;;;;;10.10;8.77;;;1.00;55.40;;;;;;5046549;28;20236;-60
2024/01/19 09:47:28;;;;;;;10.70;8.20;;;1.10;55.70;;;;;;5049464;28;20676;-60
2024/01/19 09:49:55;;;;;;;12.30;9.20;;;1.30;54.30;;;;;;5036435;28;20264;-60
2024/01/19 09:52:21;;;;;;;12.47;8.67;;;1.30;54.90;;;;;;5056768;28;20259;-60
2024/01/19 09:54:48;;;;;;;11.87;8.83;;;1.30;55.30;;;;;;5062585;28;20205;-56
2024/01/19 09:57:15;;;;;;;9.53;8.40;;;1.30;54.90;;;;;;5058166;28;20209;-60
2024/01/19 09:59:41;;;;;;;11.33;8.97;;;1.10;54.40;;;;;;5052631;28;20225;-61
2024/01/19 10:02:08;;;;;;;11.00;8.63;;;1.10;55.50;;;;;;5057106;28;20205;-60
2024/01/19 10:04:34;;;;;;;11.50;8.97;;;1.10;54.30;;;;;;5027171;28;20221;-60
2024/01/19 10:07:01;;;;;;;11.93;8.63;;;1.10;54.30;;;;;;5042455;28;20253;-59
2024/01/19 10:09:28;;;;;;;9.60;8.27;;;1.10;53.20;;;;;;5054787;28;20228;-60
2024/01/19 10:11:54;;;;;;;12.37;8.83;;;1.00;54.70;;;;;;5044926;28;20206;-60
2024/01/19 10:14:21;;;;;;;10.60;8.90;;;1.20;54.50;;;;;;5057202;28;20807;-61
2024/01/19 10:16:47;;;;;;;11.30;9.23;;;1.20;54.80;;;;;;5051574;28;20332;-61
2024/01/19 10:19:14;;;;;;;12.67;10.47;;;1.20;54.30;;;;;;5062631;28;20648;-61
2024/01/19 10:21:41;;;;;;;10.17;9.07;;;1.10;55.00;;;;;;5041026;28;20319;-62
2024/01/19 10:24:07;;;;;;;11.07;8.93;;;1.20;55.00;;;;;;5060049;28;20208;-60
2024/01/19 10:26:35;;;;;;;13.50;9.80;;;1.20;54.70;;;;;;5041868;28;20287;-61
2024/01/19 10:29:01;;;;;;;11.70;9.83;;;1.20;54.70;;;;;;5051134;28;20226;-58
2024/01/19 10:31:28;;;;;;;13.03;9.50;;;1.10;54.10;;;;;;5059750;28;20620;-61
2024/01/19 10:33:55;;;;;;;11.07;9.87;;;1.10;55.30;;;;;;5062980;28;20236;-60
2024/01/19 10:36:21;;;;;;;12.87;10.00;;;1.10;54.50;;;;;;5054166;28;20255;-61
2024/01/19 10:38:48;;;;;;;11.13;9.93;;;1.20;55.70;;;;;;5044987;28;20207;-59
2024/01/19 10:41:15;;;;;;;11.47;9.70;;;1.30;54.90;;;;;;5049490;28;20198;-60
2024/01/19 10:43:41;;;;;;;10.23;9.13;;;1.50;53.60;;;;;;5051535;28;20217;-74
2024/01/19 10:46:08;;;;;;;11.33;9.23;;;1.50;55.30;;;;;;5061829;28;20240;-61
2024/01/19 10:48:34;;;;;;;14.23;10.20;;;1.60;54.60;;;;;;5052463;28;20239;-61
2024/01/19 10:51:01;;;;;;;12.63;9.93;;;1.60;53.20;;;;;;5054042;28;20221;-58
2024/01/19 10:53:27;;;;;;;11.17;9.63;;;1.40;53.50;;;;;;5056618;28;20213;-60
2024/01/19 10:55:54;;;;;;;11.53;9.33;;;1.30;54.40;;;;;;5057118;28;20290;-61
2024/01/19 10:58:21;;;;;;;12.30;9.77;;;1.50;54.10;;;;;;5044885;28;20484;-60
2024/01/19 11:00:47;;;;;;;12.90;9.63;;;1.50;54.10;;;;;;5050400;28;20232;-59
2024/01/19 11:03:14;;;;;;;10.57;9.10;;;1.70;53.40;;;;;;5064063;28;20683;-60
2024/01/19 11:05:41;;;;;;;11.53;10.27;;;1.60;53.00;;;;;;5050961;28;20299;-59
2024/01/19 11:08:07;;;;;;;11.03;9.90;;;1.60;52.90;;;;;;5063028;28;20699;-58
2024/01/19 11:10:34;;;;;;;11.27;9.83;;;1.40;54.60;;;;;;5051867;28;20265;-60
2024/01/19 11:13:01;;;;;;;12.70;9.67;;;1.20;53.40;;;;;;5058486;28;20256;-61
2024/01/19 11:15:28;;;;;;;11.53;9.83;;;1.20;54.20;;;;;;5053763;28;20236;-59
2024/01/19 11:17:54;;;;;;;15.50;10.73;;;1.30;54.20;;;;;;5061792;28;20292;-61
2024/01/19 11:20:21;;;;;;;14.57;9.93;;;1.30;55.00;;;;;;5061092;28;20233;-61
2024/01/19 11:22:47;;;;;;;11.97;10.00;;;1.10;55.20;;;;;;5057650;28;20247;-61
2024/01/19 11:25:14;;;;;;;14.80;11.20;;;1.20;54.10;;;;;;5057617;28;20609;-60
2024/01/19 11:27:41;;;;;;;13.97;11.07;;;1.30;54.10;;;;;;5065260;28;20213;-61
2024/01/19 11:30:08;;;;;;;13.60;11.47;;;1.20;53.70;;;;;;5049761;28;20320;-61
2024/01/19 11:32:35;;;;;;;11.60;10.40;;;1.30;53.80;;;;;;5041153;28;20210;-61
2024/01/19 11:35:02;;;;;;;13.20;10.77;;;1.40;54.10;;;;;;5047359;28;20256;-61
2024/01/19 11:37:28;;;;;;;12.60;11.30;;;1.40;53.70;;;;;;5046809;28;20205;-61
2024/01/19 11:39:55;;;;;;;13.03;10.77;;;1.50;53.90;;;;;;5041120;28;20804;-61
2024/01/19 11:42:21;;;;;;;13.13;11.73;;;1.40;53.80;;;;;;5054543;28;20742;-60
2024/01/19 11:44:48;;;;;;;14.57;11.40;;;1.30;53.90;;;;;;5048612;28;20209;-61
2024/01/19 11:47:15;;;;;;;13.63;12.17;;;1.30;54.70;;;;;;5059449;28;20209;-59
2024/01/19 11:49:41;;;;;;;19.93;13.60;;;1.30;54.00;;;;;;5052463;28;20254;-60
2024/01/19 11:52:08;;;;;;;14.83;12.30;;;1.50;54.80;;;;;;5055483;28;20700;-58
2024/01/19 11:54:36;;;;;;;17.57;12.53;;;1.80;53.50;;;;;;5048977;28;20233;-60
2024/01/19 11:57:02;;;;;;;14.53;11.90;;;1.80;52.80;;;;;;5049203;28;20646;-58
2024/01/19 11:59:29;;;;;;;15.43;12.03;;;2.10;52.50;;;;;;5050248;28;20567;-59
2024/01/19 12:01:55;;;;;;;17.90;12.27;;;2.00;52.30;;;;;;5044552;28;20479;-62
2024/01/19 12:04:22;;;;;;;15.57;12.40;;;1.70;53.10;;;;;;5040988;28;20261;-61
2024/01/19 12:06:48;;;;;;;15.80;12.47;;;1.60;53.80;;;;;;5056323;28;20264;-62
2024/01/19 12:09:16;;;;;;;15.93;12.43;;;1.30;53.30;;;;;;5046087;28;20335;-62
2024/01/19 12:11:42;;;;;;;13.03;11.53;;;1.40;53.70;;;;;;5048333;28;20237;-61
2024/01/19 12:14:09;;;;;;;13.33;11.93;;;1.70;52.00;;;;;;5049980;28;20202;-63
2024/01/19 12:16:38;;;;;;;13.10;11.70;;;2.20;50.90;;;;;;5049813;28;20229;-62
2024/01/19 12:19:04;;;;;;;14.50;12.13;;;1.80;51.40;;;;;;5036219;28;20272;-62
2024/01/19 12:21:31;;;;;;;15.40;11.13;;;1.80;52.10;;;;;;5051342;28;20207;-62
2024/01/19 12:23:57;;;;;;;12.67;11.03;;;1.80;52.10;;;;;;5054029;28;20293;-62
2024/01/19 12:26:24;;;;;;;11.67;9.67;;;2.40;49.30;;;;;;5055777;28;20257;-61
2024/01/19 12:28:50;;;;;;;12.53;9.17;;;2.50;48.30;;;;;;5049032;28;20259;-62
2024/01/19 12:31:17;;;;;;;11.70;10.00;;;2.30;47.80;;;;;;5053348;28;20260;-62
2024/01/19 12:33:44;;;;;;;11.27;9.13;;;2.40;48.40;;;;;;5042013;28;20646;-62
2024/01/19 12:36:12;;;;;;;12.77;10.13;;;2.50;47.90;;;;;;5047668;28;20312;-62
2024/01/19 12:38:39;;;;;;;12.17;9.83;;;2.70;47.80;;;;;;5056133;28;20213;-62
2024/01/19 12:41:06;;;;;;;13.23;10.50;;;2.80;47.60;;;;;;5050216;28;20723;-60
2024/01/19 12:43:33;;;;;;;12.77;10.70;;;2.70;48.00;;;;;;5054962;28;20222;-60
2024/01/19 12:45:59;;;;;;;11.10;10.00;;;2.40;47.60;;;;;;5055485;28;20238;-61